Time;durP1;ratioP1;P1;durP2;ratioP2;P2;SDS_P1;SDS_P2;PMS_P1;PMS_P2;Temp;Humidity;BMP_temperature;BMP_pressure;BME280_temperature;BME280_humidity;BME280_pressure;Samples;Min_cycle;Max_cycle;Signal;HPM_P1;HPM_P2
2023/05/07 00:00:20;;;;;;;13.85;8.10;;;;;;;14.12;93.07;101475.00;5104075;27;20424;-71
2023/05/07 00:02:47;;;;;;;9.07;7.93;;;;;;;14.07;93.26;101481.38;5106103;27;20043;-70
2023/05/07 00:05:16;;;;;;;11.43;8.50;;;;;;;14.02;93.55;101484.19;5121080;27;20511;-71
2023/05/07 00:07:43;;;;;;;11.20;8.90;;;;;;;13.98;93.68;101480.78;5109782;27;20092;-71
2023/05/07 00:10:12;;;;;;;12.82;9.63;;;;;;;13.94;94.34;101483.56;5115381;27;20138;-71
2023/05/07 00:12:40;;;;;;;12.95;9.43;;;;;;;13.91;94.88;101481.88;5124403;27;20124;-70
2023/05/07 00:15:08;;;;;;;12.93;9.73;;;;;;;13.87;94.94;101484.69;5114348;27;20041;-72
2023/05/07 00:17:36;;;;;;;11.18;8.65;;;;;;;13.84;95.03;101490.97;5104710;27;20582;-72
2023/05/07 00:20:05;;;;;;;12.05;9.23;;;;;;;13.81;94.94;101486.66;5109350;27;20051;-71
2023/05/07 00:22:32;;;;;;;14.20;9.45;;;;;;;13.79;95.13;101477.88;5141369;27;20559;-71
2023/05/07 00:25:00;;;;;;;11.65;9.35;;;;;;;13.75;95.17;101484.19;5117896;27;20058;-71
2023/05/07 00:27:27;;;;;;;11.30;9.25;;;;;;;13.73;95.29;101487.81;5128566;27;20040;-71
2023/05/07 00:29:54;;;;;;;13.05;8.65;;;;;;;13.68;95.07;101481.81;5129323;27;20048;-71
2023/05/07 00:32:21;;;;;;;11.13;9.43;;;;;;;13.66;95.35;101479.19;5131469;27;20036;-71
2023/05/07 00:34:49;;;;;;;15.98;9.82;;;;;;;13.65;95.68;101474.81;5122784;27;20039;-70
2023/05/07 00:37:16;;;;;;;12.95;10.25;;;;;;;13.62;96.07;101470.50;5108968;27;20032;-71
2023/05/07 00:39:43;;;;;;;12.68;10.15;;;;;;;13.61;96.09;101462.59;5110581;27;20040;-71
2023/05/07 00:42:10;;;;;;;14.13;10.30;;;;;;;13.60;96.54;101459.06;5106786;27;20032;-70
2023/05/07 00:44:37;;;;;;;14.25;10.48;;;;;;;13.57;96.09;101461.84;5107997;27;20119;-71
2023/05/07 00:47:04;;;;;;;16.02;10.65;;;;;;;13.53;96.43;101465.50;5099808;27;20127;-71
2023/05/07 00:49:39;;;;;;;15.65;10.98;;;;;;;13.52;96.60;101461.13;5118232;27;20424;-71
2023/05/07 00:52:10;;;;;;;15.07;11.32;;;;;;;13.51;96.48;101462.91;5109058;27;20405;-71
2023/05/07 00:54:40;;;;;;;15.65;11.40;;;;;;;13.48;96.42;101460.34;5108697;27;20553;-71
2023/05/07 00:57:09;;;;;;;13.65;10.35;;;;;;;13.46;96.56;101456.88;5105709;27;20352;-71
2023/05/07 00:59:38;;;;;;;15.32;11.85;;;;;;;13.46;96.43;101456.03;5142742;27;20101;-71
2023/05/07 01:02:05;;;;;;;15.45;12.15;;;;;;;13.46;96.88;101458.69;5107129;27;20044;-71
2023/05/07 01:04:32;;;;;;;17.05;12.70;;;;;;;13.46;96.91;101463.97;5108654;27;20591;-71
2023/05/07 01:07:02;;;;;;;15.48;12.63;;;;;;;13.44;96.92;101455.22;5105885;27;20048;-71
2023/05/07 01:09:29;;;;;;;14.90;12.13;;;;;;;13.44;97.20;101450.75;5124789;27;20510;-71
2023/05/07 01:11:58;;;;;;;16.52;12.70;;;;;;;13.45;97.28;101456.94;5107962;27;20043;-71
2023/05/07 01:14:26;;;;;;;15.75;13.43;;;;;;;13.43;97.26;101458.78;5122323;27;20067;-70
2023/05/07 01:16:53;;;;;;;17.25;13.05;;;;;;;13.43;97.56;101449.03;5106666;27;20824;-70
2023/05/07 01:19:23;;;;;;;16.65;13.10;;;;;;;13.43;97.70;101456.97;5113040;27;20095;-70
2023/05/07 01:21:51;;;;;;;20.42;14.25;;;;;;;13.43;98.07;101448.16;5110289;27;20039;-71
2023/05/07 01:24:21;;;;;;;19.73;13.65;;;;;;;13.42;98.08;101455.28;5118051;27;20542;-70
2023/05/07 01:26:48;;;;;;;19.90;13.73;;;;;;;13.43;98.24;101456.97;5115966;27;20070;-70
2023/05/07 01:29:16;;;;;;;17.25;14.05;;;;;;;13.46;98.47;101456.03;5128304;27;20032;-70
2023/05/07 01:31:46;;;;;;;17.98;14.23;;;;;;;13.46;98.54;101451.59;5107565;27;20032;-71
2023/05/07 01:34:17;;;;;;;21.05;14.18;;;;;;;13.48;98.65;101451.56;5113116;27;20880;-70
2023/05/07 01:36:46;;;;;;;18.75;13.45;;;;;;;13.48;98.72;101447.09;5108120;27;20104;-70
2023/05/07 01:39:13;;;;;;;17.50;14.40;;;;;;;13.47;98.53;101448.03;5115607;27;20575;-71
2023/05/07 01:41:42;;;;;;;18.58;15.02;;;;;;;13.48;98.71;101455.06;5118576;27;20040;-71
2023/05/07 01:44:13;;;;;;;19.75;15.05;;;;;;;13.47;99.14;101448.03;5109199;27;20047;-70
2023/05/07 01:46:40;;;;;;;19.67;14.55;;;;;;;13.48;99.05;101448.91;5112009;27;20050;-70
2023/05/07 01:49:08;;;;;;;18.52;14.30;;;;;;;13.49;99.19;101448.84;5128934;27;20043;-70
2023/05/07 01:51:36;;;;;;;18.65;15.02;;;;;;;13.53;98.91;101454.91;5125120;27;20487;-70
2023/05/07 01:54:03;;;;;;;18.88;14.57;;;;;;;13.58;98.96;101460.03;5129123;27;20893;-71
2023/05/07 01:56:31;;;;;;;19.27;16.50;;;;;;;13.61;98.91;101452.00;5116114;27;20504;-70
2023/05/07 01:58:58;;;;;;;17.83;16.00;;;;;;;13.62;98.94;101448.44;5115938;27;20071;-70
2023/05/07 02:01:25;;;;;;;20.63;15.80;;;;;;;13.64;98.77;101441.28;5100385;27;20090;-70
2023/05/07 02:03:53;;;;;;;20.20;15.85;;;;;;;13.63;98.86;101432.50;5112828;27;20072;-70
2023/05/07 02:06:24;;;;;;;20.95;15.95;;;;;;;13.60;98.59;101424.63;5136744;27;20040;-70
2023/05/07 02:08:56;;;;;;;21.20;16.10;;;;;;;13.60;99.23;101429.94;5126337;27;20043;-70
2023/05/07 02:11:23;;;;;;;19.02;16.35;;;;;;;13.61;98.70;101431.66;5118417;27;20564;-71
2023/05/07 02:13:50;;;;;;;19.15;16.33;;;;;;;13.62;99.12;101430.75;5106782;28;20048;-71
2023/05/07 02:16:17;;;;;;;20.95;16.02;;;;;;;13.62;99.02;101425.44;5111444;27;20040;-70
2023/05/07 02:18:44;;;;;;;22.63;17.27;;;;;;;13.63;99.14;101432.50;5117398;27;20519;-70
2023/05/07 02:21:11;;;;;;;20.02;16.88;;;;;;;13.64;99.39;101423.63;5118586;27;20052;-71
2023/05/07 02:23:38;;;;;;;21.88;16.20;;;;;;;13.64;99.34;101426.28;5127941;27;20904;-71
2023/05/07 02:26:06;;;;;;;21.48;16.95;;;;;;;13.64;99.20;101425.38;5130141;27;20036;-71
2023/05/07 02:28:35;;;;;;;19.17;16.30;;;;;;;13.67;99.50;101433.25;5127712;27;20036;-71
2023/05/07 02:31:04;;;;;;;22.75;16.02;;;;;;;13.65;99.25;101424.47;5140607;27;20036;-71
2023/05/07 02:33:32;;;;;;;21.85;16.08;;;;;;;13.65;99.19;101419.19;5107900;27;20452;-71
2023/05/07 02:36:10;;;;;;;18.38;15.40;;;;;;;13.65;99.16;101422.72;5118632;27;20043;-71
2023/05/07 02:38:53;;;;;;;17.77;15.00;;;;;;;13.64;98.85;101423.63;5107386;27;20036;-71
2023/05/07 02:41:21;;;;;;;20.17;15.90;;;;;;;13.65;99.41;101428.00;5105527;27;20044;-71
2023/05/07 02:43:48;;;;;;;17.90;15.88;;;;;;;13.67;99.01;101425.28;5104976;27;20044;-71
2023/05/07 02:46:15;;;;;;;22.05;16.17;;;;;;;13.66;98.82;101424.44;5112637;27;20524;-70
2023/05/07 02:48:47;;;;;;;18.73;14.75;;;;;;;13.67;98.88;101427.94;5106366;27;20097;-70
2023/05/07 02:51:14;;;;;;;18.58;15.50;;;;;;;13.66;98.78;101440.34;5116830;27;20067;-70
2023/05/07 02:53:42;;;;;;;18.25;16.15;;;;;;;13.64;98.47;101436.88;5101188;27;20044;-70
2023/05/07 02:56:09;;;;;;;20.08;16.27;;;;;;;13.62;98.69;101428.09;5123649;27;20567;-71
2023/05/07 02:58:36;;;;;;;19.55;15.32;;;;;;;13.61;98.85;101431.66;5127296;27;20518;-71
2023/05/07 03:01:05;;;;;;;18.98;16.52;;;;;;;13.61;98.89;101442.25;5121088;27;20052;-71
2023/05/07 03:03:40;;;;;;;22.02;15.48;;;;;;;13.58;98.84;101433.56;5122663;27;20047;-71
2023/05/07 03:06:07;;;;;;;21.90;17.10;;;;;;;13.56;98.83;101435.38;5112739;27;20040;-71
2023/05/07 03:08:34;;;;;;;22.60;16.58;;;;;;;13.55;99.15;101438.94;5129493;27;20043;-71
2023/05/07 03:11:01;;;;;;;21.05;16.55;;;;;;;13.56;99.27;101436.28;5138232;27;20982;-72
2023/05/07 03:13:28;;;;;;;20.65;16.98;;;;;;;13.54;99.05;101434.56;5111477;27;20119;-72
2023/05/07 03:15:56;;;;;;;22.08;18.15;;;;;;;13.55;99.38;101437.19;5138691;27;20048;-71
2023/05/07 03:18:23;;;;;;;24.48;18.30;;;;;;;13.56;99.46;101443.34;5107477;27;20131;-71
2023/05/07 03:20:51;;;;;;;23.60;18.27;;;;;;;13.56;99.42;101446.88;5130366;27;20039;-71
2023/05/07 03:23:18;;;;;;;19.75;17.63;;;;;;;13.55;99.34;101439.84;5111523;27;20043;-71
2023/05/07 03:25:48;;;;;;;22.17;18.48;;;;;;;13.59;99.31;101445.88;5108794;27;20052;-72
2023/05/07 03:28:15;;;;;;;20.73;17.65;;;;;;;13.56;99.32;101438.03;5121499;27;20075;-71
2023/05/07 03:30:48;;;;;;;21.83;18.38;;;;;;;13.55;99.74;101434.53;5115001;27;20673;-71
2023/05/07 03:33:16;;;;;;;23.55;18.70;;;;;;;13.54;99.72;101427.50;5129249;27;20109;-71
2023/05/07 03:35:43;;;;;;;23.45;19.10;;;;;;;13.56;99.66;101428.31;5111147;27;21538;-71
2023/05/07 03:38:11;;;;;;;22.27;18.40;;;;;;;13.52;99.63;101439.94;5118902;27;20043;-71
2023/05/07 03:40:38;;;;;;;21.27;18.73;;;;;;;13.51;99.82;101440.84;5102894;27;20482;-71
2023/05/07 03:43:05;;;;;;;23.33;19.45;;;;;;;13.52;99.76;101439.94;5111175;27;20124;-71
2023/05/07 03:45:35;;;;;;;22.92;19.65;;;;;;;13.50;99.82;101437.34;5108894;27;20039;-71
2023/05/07 03:48:16;;;;;;;23.70;18.08;;;;;;;13.48;100.00;101439.16;5107027;27;20044;-71
2023/05/07 03:50:44;;;;;;;25.98;19.33;;;;;;;13.47;99.79;101440.06;5107981;27;20078;-71
2023/05/07 03:53:11;;;;;;;23.83;19.23;;;;;;;13.48;100.00;101439.16;5118622;27;20114;-71
2023/05/07 03:55:39;;;;;;;23.77;19.33;;;;;;;13.45;100.00;101435.75;5111898;27;20048;-71
2023/05/07 03:58:06;;;;;;;26.10;19.70;;;;;;;13.44;99.77;101439.31;5126977;27;20040;-71
2023/05/07 04:00:37;;;;;;;24.02;20.60;;;;;;;13.43;99.88;101442.88;5120207;27;20544;-71
2023/05/07 04:03:14;;;;;;;23.05;19.85;;;;;;;13.41;100.00;101442.06;5118627;27;20043;-71
2023/05/07 04:05:41;;;;;;;22.90;20.05;;;;;;;13.41;100.00;101444.69;5108333;27;20498;-71
2023/05/07 04:08:09;;;;;;;27.48;20.45;;;;;;;13.38;100.00;101444.78;5125603;27;20044;-72
2023/05/07 04:10:42;;;;;;;24.75;20.13;;;;;;;13.39;100.00;101446.50;5124532;27;20150;-71
2023/05/07 04:13:10;;;;;;;24.35;20.48;;;;;;;13.39;100.00;101443.84;5127732;27;20598;-70
2023/05/07 04:15:37;;;;;;;25.73;20.00;;;;;;;13.38;100.00;101442.16;5123263;27;20041;-70
2023/05/07 04:18:08;;;;;;;26.02;20.48;;;;;;;13.41;100.00;101447.34;5117131;27;20476;-71
2023/05/07 04:20:37;;;;;;;25.13;20.40;;;;;;;13.39;100.00;101442.13;5118125;27;20102;-71
2023/05/07 04:23:08;;;;;;;24.50;20.63;;;;;;;13.41;100.00;101445.59;5117444;27;20090;-71
2023/05/07 04:25:35;;;;;;;25.92;20.65;;;;;;;13.41;100.00;101447.34;5121628;27;20040;-71
2023/05/07 04:28:12;;;;;;;26.13;21.08;;;;;;;13.42;100.00;101449.09;5120519;27;20102;-71
2023/05/07 04:30:41;;;;;;;25.52;21.15;;;;;;;13.41;100.00;101455.28;5119986;27;20055;-71
2023/05/07 04:33:10;;;;;;;26.48;21.65;;;;;;;13.42;100.00;101457.91;5123959;27;20545;-71
2023/05/07 04:35:40;;;;;;;24.67;20.80;;;;;;;13.43;100.00;101456.97;5132634;27;20040;-71
2023/05/07 04:38:07;;;;;;;25.08;20.40;;;;;;;13.43;100.00;101459.63;5115338;27;20593;-71
2023/05/07 04:40:36;;;;;;;24.30;20.20;;;;;;;13.46;100.00;101462.19;5120390;27;20132;-71
2023/05/07 04:43:04;;;;;;;27.50;20.92;;;;;;;13.45;100.00;101456.94;5143362;27;20156;-72
2023/05/07 04:45:36;;;;;;;23.80;19.63;;;;;;;13.46;100.00;101456.88;5139828;27;20520;-71
2023/05/07 04:48:04;;;;;;;25.80;21.40;;;;;;;13.47;100.00;101455.97;5110549;27;20097;-71
2023/05/07 04:50:33;;;;;;;25.33;20.80;;;;;;;13.48;100.00;101464.81;5109012;27;20549;-71
2023/05/07 04:53:02;;;;;;;28.33;21.52;;;;;;;13.47;100.00;101460.41;5118668;27;20059;-71
2023/05/07 04:55:30;;;;;;;30.85;22.30;;;;;;;13.46;100.00;101463.97;5117594;27;20105;-71
2023/05/07 04:57:57;;;;;;;27.42;21.35;;;;;;;13.46;100.00;101453.38;5106084;27;20038;-71
2023/05/07 05:00:26;;;;;;;25.30;20.15;;;;;;;13.47;100.00;101463.06;5111897;27;21118;-70
2023/05/07 05:02:54;;;;;;;26.60;20.35;;;;;;;13.46;100.00;101467.47;5123482;27;20042;-70
2023/05/07 05:05:22;;;;;;;25.85;21.20;;;;;;;13.45;100.00;101465.75;5124179;27;20113;-70
2023/05/07 05:07:52;;;;;;;24.98;19.70;;;;;;;13.48;100.00;101468.28;5103873;27;20058;-71
2023/05/07 05:10:21;;;;;;;28.90;20.48;;;;;;;13.53;100.00;101469.94;5137060;27;20503;-70
2023/05/07 05:12:51;;;;;;;25.13;19.83;;;;;;;13.59;100.00;101470.59;5117972;27;20868;-70
2023/05/07 05:15:19;;;;;;;25.40;20.67;;;;;;;13.62;100.00;101469.63;5110306;27;20047;-68
2023/05/07 05:17:47;;;;;;;23.80;19.15;;;;;;;13.65;100.00;101467.75;5115472;27;20464;-69
2023/05/07 05:20:15;;;;;;;23.88;19.20;;;;;;;13.71;100.00;101465.78;5118924;27;20031;-71
2023/05/07 05:22:42;;;;;;;24.15;19.95;;;;;;;13.77;100.00;101470.91;5127716;27;20621;-71
2023/05/07 05:25:11;;;;;;;24.73;19.52;;;;;;;13.81;100.00;101469.88;5125148;27;20032;-71
2023/05/07 05:27:39;;;;;;;23.80;19.73;;;;;;;13.88;100.00;101468.75;5142861;27;20043;-71
2023/05/07 05:30:09;;;;;;;22.85;18.58;;;;;;;13.93;100.00;101468.59;5141569;27;20044;-71
2023/05/07 05:32:38;;;;;;;27.38;19.23;;;;;;;14.00;100.00;101475.41;5125975;27;20052;-71
2023/05/07 05:35:07;;;;;;;23.00;18.63;;;;;;;14.08;100.00;101483.97;5126495;27;20258;-71
2023/05/07 05:37:36;;;;;;;22.35;18.23;;;;;;;14.14;100.00;101483.75;5126820;27;20564;-72
2023/05/07 05:40:25;;;;;;;20.45;16.27;;;;;;;14.27;99.61;101485.97;5122447;27;20133;-72
2023/05/07 05:42:54;;;;;;;20.00;16.77;;;;;;;14.42;99.67;101488.09;5135374;27;20033;-71
2023/05/07 05:45:22;;;;;;;21.60;15.35;;;;;;;14.61;98.93;101492.72;5131840;27;20044;-72
2023/05/07 05:47:50;;;;;;;17.33;14.70;;;;;;;14.75;97.91;101498.38;5125662;27;20610;-72
2023/05/07 05:50:18;;;;;;;16.73;14.73;;;;;;;14.87;97.09;101497.06;5109790;27;20126;-72
2023/05/07 05:52:47;;;;;;;19.50;15.57;;;;;;;14.98;97.23;101506.44;5128045;27;20048;-72
2023/05/07 05:55:16;;;;;;;21.40;16.48;;;;;;;15.09;96.86;101501.56;5125878;27;20085;-71
2023/05/07 05:57:44;;;;;;;19.45;16.13;;;;;;;15.21;96.75;101503.72;5143451;27;20040;-72
2023/05/07 06:00:13;;;;;;;18.52;15.48;;;;;;;15.34;96.25;101496.16;5101120;27;20154;-72
2023/05/07 06:02:46;;;;;;;19.02;15.25;;;;;;;15.45;96.25;101497.50;5127512;27;20048;-74
2023/05/07 06:05:20;;;;;;;18.55;14.80;;;;;;;15.58;95.51;101503.19;5154343;27;20093;-69
2023/05/07 06:07:51;;;;;;;18.10;15.20;;;;;;;15.58;94.32;101503.19;5121080;27;20798;-70
2023/05/07 06:10:19;;;;;;;18.75;14.70;;;;;;;15.52;94.63;101502.50;5126307;27;20042;-69
2023/05/07 06:12:46;;;;;;;19.15;13.77;;;;;;;15.53;93.87;101503.38;5142123;27;20111;-68
2023/05/07 06:15:13;;;;;;;18.80;14.60;;;;;;;15.47;93.71;101500.94;5123782;27;20057;-68
2023/05/07 06:17:41;;;;;;;16.95;13.95;;;;;;;15.43;94.24;101502.88;5136848;27;20079;-68
2023/05/07 06:20:10;;;;;;;17.45;14.32;;;;;;;15.46;94.17;101502.75;5146478;27;20030;-68
2023/05/07 06:22:39;;;;;;;18.48;14.98;;;;;;;15.51;93.97;101508.75;5126866;27;20040;-71
2023/05/07 06:25:07;;;;;;;20.13;14.35;;;;;;;15.57;93.67;101509.44;5148788;27;20996;-71
2023/05/07 06:27:34;;;;;;;16.70;12.80;;;;;;;15.61;93.85;101508.38;5134622;27;20043;-72
2023/05/07 06:30:02;;;;;;;14.40;12.35;;;;;;;15.80;93.81;101511.13;5136945;27;20039;-72
2023/05/07 06:32:29;;;;;;;16.75;12.63;;;;;;;15.99;93.37;101504.13;5131777;27;20604;-73
2023/05/07 06:34:56;;;;;;;15.57;13.32;;;;;;;16.13;91.66;101502.69;5126966;27;20043;-72
2023/05/07 06:37:23;;;;;;;17.45;14.32;;;;;;;16.20;90.69;101508.63;5128029;27;20046;-73
2023/05/07 06:39:57;;;;;;;17.40;13.57;;;;;;;16.18;90.63;101507.81;5126559;27;20118;-72
2023/05/07 06:42:26;;;;;;;17.20;13.70;;;;;;;16.17;90.37;101508.75;5123903;27;20039;-72
2023/05/07 06:44:58;;;;;;;15.93;13.75;;;;;;;16.20;89.59;101508.63;5121336;27;20040;-73
2023/05/07 06:47:29;;;;;;;16.13;12.73;;;;;;;16.18;89.79;101516.66;5129642;27;20072;-72
2023/05/07 06:49:56;;;;;;;14.95;12.10;;;;;;;16.24;89.84;101513.75;5136127;27;20043;-73
2023/05/07 06:52:27;;;;;;;15.25;12.10;;;;;;;16.36;89.73;101517.66;5155432;27;20043;-72
2023/05/07 06:54:54;;;;;;;14.65;11.60;;;;;;;16.53;88.22;101513.41;5137909;27;20735;-73
2023/05/07 06:57:24;;;;;;;16.30;11.65;;;;;;;16.62;87.51;101518.31;5143583;27;20059;-73
2023/05/07 06:59:51;;;;;;;12.80;11.43;;;;;;;16.75;87.54;101522.13;5128284;27;20050;-72
2023/05/07 07:02:19;;;;;;;14.32;12.23;;;;;;;16.91;86.57;101524.09;5144246;27;20046;-72
2023/05/07 07:04:48;;;;;;;14.70;10.93;;;;;;;17.01;85.72;101524.53;5143749;27;20585;-73
2023/05/07 07:07:16;;;;;;;12.20;10.40;;;;;;;17.17;85.03;101522.91;5122273;27;20500;-73
2023/05/07 07:09:45;;;;;;;12.88;10.45;;;;;;;17.34;84.93;101530.09;5152549;27;20157;-72
2023/05/07 07:12:22;;;;;;;14.38;10.38;;;;;;;17.56;84.86;101525.53;5126166;27;20077;-72
2023/05/07 07:14:49;;;;;;;13.80;11.02;;;;;;;17.67;82.91;101529.38;5126633;27;20036;-72
2023/05/07 07:17:16;;;;;;;12.82;10.00;;;;;;;17.70;82.45;101528.38;5126212;27;20090;-72
2023/05/07 07:19:43;;;;;;;12.63;10.23;;;;;;;17.73;83.13;101532.69;5143673;27;20075;-72
2023/05/07 07:22:11;;;;;;;17.30;10.40;;;;;;;17.78;81.52;101523.53;5142558;27;20044;-72
2023/05/07 07:24:38;;;;;;;12.93;10.15;;;;;;;17.72;81.94;101529.16;5141508;27;20098;-72
2023/05/07 07:27:07;;;;;;;13.25;10.05;;;;;;;17.67;81.31;101523.19;5110134;27;20035;-72
2023/05/07 07:29:34;;;;;;;13.13;9.48;;;;;;;17.65;81.49;101536.56;5137967;27;20142;-72
2023/05/07 07:32:02;;;;;;;12.43;9.82;;;;;;;17.61;81.21;101523.47;5138816;27;20036;-73
2023/05/07 07:34:31;;;;;;;11.40;9.23;;;;;;;17.56;81.52;101529.03;5143826;27;20067;-72
2023/05/07 07:37:05;;;;;;;17.27;10.00;;;;;;;17.56;81.96;101523.69;5116643;27;20036;-73
2023/05/07 07:39:37;;;;;;;10.75;9.43;;;;;;;17.63;81.77;101529.59;5140832;27;20051;-72
2023/05/07 07:42:06;;;;;;;13.45;9.18;;;;;;;17.65;81.41;101528.56;5143238;27;20040;-73
2023/05/07 07:44:33;;;;;;;9.65;8.05;;;;;;;17.66;81.08;101538.31;5142115;27;20109;-72
2023/05/07 07:47:06;;;;;;;12.20;7.95;;;;;;;17.72;81.39;101538.97;5124825;27;20036;-73
2023/05/07 07:49:33;;;;;;;12.25;8.50;;;;;;;17.79;80.64;101541.25;5130983;27;20044;-72
2023/05/07 07:52:04;;;;;;;11.75;8.18;;;;;;;17.83;79.90;101542.81;5143230;27;20142;-73
2023/05/07 07:54:32;;;;;;;11.85;7.80;;;;;;;17.80;79.93;101539.44;5148827;27;20055;-73
2023/05/07 07:57:02;;;;;;;10.07;7.95;;;;;;;17.80;80.42;101537.66;5127655;27;20032;-74
2023/05/07 07:59:33;;;;;;;22.85;8.73;;;;;;;17.87;79.74;101540.84;5140721;27;20080;-73
2023/05/07 08:02:00;;;;;;;12.55;8.68;;;;;;;17.95;79.78;101541.34;5125442;27;20040;-72
2023/05/07 08:04:30;;;;;;;14.43;8.50;;;;;;;17.96;80.09;101540.41;5126229;27;20500;-72
2023/05/07 08:07:00;;;;;;;15.27;9.20;;;;;;;18.03;80.61;101540.13;5140980;27;20075;-72
2023/05/07 08:09:29;;;;;;;10.85;7.93;;;;;;;18.20;80.16;101539.28;5116072;27;20036;-72
2023/05/07 08:11:58;;;;;;;9.45;7.85;;;;;;;18.27;79.14;101544.19;5124002;27;20040;-72
2023/05/07 08:14:28;;;;;;;10.98;7.97;;;;;;;18.34;78.70;101549.22;5144109;27;20046;-73
2023/05/07 08:17:03;;;;;;;10.23;7.65;;;;;;;18.44;78.53;101554.00;5112344;27;20478;-73
2023/05/07 08:19:34;;;;;;;8.73;7.40;;;;;;;18.55;77.82;101556.13;5125074;27;20055;-74
2023/05/07 08:22:04;;;;;;;9.35;7.88;;;;;;;18.69;77.69;101552.72;5138540;27;20040;-73
2023/05/07 08:24:31;;;;;;;9.65;7.25;;;;;;;18.85;76.94;101552.75;5117847;27;20039;-73
2023/05/07 08:26:59;;;;;;;11.90;7.97;;;;;;;18.96;76.07;101549.50;5135373;27;20093;-73
2023/05/07 08:29:26;;;;;;;11.57;8.52;;;;;;;19.01;75.29;101551.94;5128517;27;20051;-73
2023/05/07 08:31:56;;;;;;;10.55;7.95;;;;;;;19.05;74.52;101549.00;5119220;27;20118;-73
2023/05/07 08:34:23;;;;;;;10.90;8.10;;;;;;;19.07;75.61;101547.13;5121561;27;20520;-72
2023/05/07 08:36:52;;;;;;;10.27;7.95;;;;;;;19.23;74.60;101549.81;5134687;27;20582;-71
2023/05/07 08:39:22;;;;;;;9.45;7.40;;;;;;;19.35;74.59;101550.91;5124765;27;20055;-73
2023/05/07 08:41:56;;;;;;;9.82;7.75;;;;;;;19.55;74.44;101548.94;5123191;27;20055;-73
2023/05/07 08:44:29;;;;;;;10.55;7.50;;;;;;;19.77;74.51;101543.22;5140240;27;20031;-73
2023/05/07 08:47:00;;;;;;;9.38;7.22;;;;;;;19.99;73.01;101550.03;5127256;27;20046;-73
2023/05/07 08:49:29;;;;;;;8.45;6.95;;;;;;;20.19;73.66;101548.81;5145441;27;20100;-73
2023/05/07 08:51:56;;;;;;;8.70;6.90;;;;;;;20.32;73.02;101544.47;5145793;27;20575;-73
2023/05/07 08:54:26;;;;;;;8.32;7.20;;;;;;;20.40;70.55;101541.31;5122973;27;20040;-74
2023/05/07 08:56:54;;;;;;;9.50;6.78;;;;;;;20.39;71.18;101547.66;5126423;27;20105;-74
2023/05/07 08:59:21;;;;;;;8.55;7.00;;;;;;;20.37;69.64;101546.00;5123530;27;20039;-74
2023/05/07 09:01:48;;;;;;;10.40;6.80;;;;;;;20.28;69.32;101553.63;5133980;27;20060;-74
2023/05/07 09:04:16;;;;;;;9.20;7.00;;;;;;;20.23;69.16;101557.53;5128264;27;20068;-74
2023/05/07 09:06:44;;;;;;;9.13;6.45;;;;;;;20.17;68.99;101553.41;5143786;27;20042;-74
2023/05/07 09:09:18;;;;;;;7.10;6.18;;;;;;;20.17;69.93;101558.75;5124271;27;20041;-74
2023/05/07 09:11:46;;;;;;;10.10;6.63;;;;;;;20.27;70.15;101553.72;5120120;27;20085;-74
2023/05/07 09:14:15;;;;;;;10.80;6.35;;;;;;;20.43;70.90;101546.47;5145378;27;20046;-74
2023/05/07 09:16:46;;;;;;;10.00;6.40;;;;;;;20.70;71.00;101550.22;5121255;27;20119;-74
2023/05/07 09:19:13;;;;;;;8.38;6.70;;;;;;;20.92;68.54;101557.81;5124201;27;20072;-75
2023/05/07 09:21:44;;;;;;;7.85;6.18;;;;;;;20.91;67.79;101559.66;5126677;27;20767;-74
2023/05/07 09:24:15;;;;;;;9.38;6.70;;;;;;;20.91;67.74;101554.28;5146228;27;20082;-74
2023/05/07 09:26:43;;;;;;;9.70;6.40;;;;;;;20.93;66.72;101556.88;5128058;27;20122;-75
2023/05/07 09:29:11;;;;;;;7.68;5.43;;;;;;;20.96;68.27;101559.34;5127928;27;20044;-75
2023/05/07 09:31:39;;;;;;;7.88;5.95;;;;;;;21.11;68.19;101557.53;5114363;27;20039;-74
2023/05/07 09:34:09;;;;;;;8.55;5.80;;;;;;;21.28;68.26;101555.56;5146446;27;20031;-75
2023/05/07 09:36:39;;;;;;;8.07;5.65;;;;;;;21.31;65.27;101556.25;5136330;27;20137;-74
2023/05/07 09:39:07;;;;;;;8.65;5.90;;;;;;;21.29;65.78;101551.94;5151089;27;20034;-75
2023/05/07 09:41:45;;;;;;;8.48;5.63;;;;;;;21.40;65.49;101554.78;5147212;27;20036;-75
2023/05/07 09:44:35;;;;;;;8.23;6.40;;;;;;;21.57;65.24;101551.00;5143562;27;20075;-73
2023/05/07 09:47:08;;;;;;;8.60;5.32;;;;;;;21.69;64.33;101552.91;5141334;27;20043;-73
2023/05/07 09:49:47;;;;;;;6.95;4.78;;;;;;;21.75;63.75;101548.97;5125323;27;20470;-73
2023/05/07 09:52:20;;;;;;;5.57;4.80;;;;;;;21.88;60.99;101549.84;5110719;27;20046;-73
2023/05/07 09:54:53;;;;;;;5.82;4.78;;;;;;;21.88;63.16;101549.84;5110955;27;20100;-73
2023/05/07 09:57:24;;;;;;;7.15;4.93;;;;;;;21.96;63.29;101553.84;5125649;27;20238;-74
2023/05/07 09:59:58;;;;;;;6.35;4.93;;;;;;;22.02;63.12;101545.38;5129038;27;20045;-74
2023/05/07 10:02:31;;;;;;;8.43;5.45;;;;;;;22.07;62.79;101548.63;5127509;27;20035;-74
2023/05/07 10:05:00;;;;;;;6.50;4.80;;;;;;;22.12;63.25;101548.31;5129626;27;20040;-74
2023/05/07 10:07:31;;;;;;;5.57;4.55;;;;;;;22.24;62.03;101550.13;5143799;27;20439;-74
2023/05/07 10:10:06;;;;;;;7.30;5.03;;;;;;;22.22;60.92;101554.78;5123608;27;20101;-74
2023/05/07 10:12:40;;;;;;;9.90;5.03;;;;;;;22.15;61.74;101551.63;5122989;27;20082;-74
2023/05/07 10:15:14;;;;;;;7.57;5.28;;;;;;;22.14;62.74;101549.03;5125606;27;20555;-74
2023/05/07 10:17:45;;;;;;;8.10;5.40;;;;;;;22.15;62.50;101548.97;5118703;27;20040;-73
2023/05/07 10:20:12;;;;;;;6.68;5.00;;;;;;;22.22;61.64;101546.72;5126431;27;20047;-73
2023/05/07 10:22:47;;;;;;;7.57;4.53;;;;;;;22.39;60.71;101552.75;5142160;27;20097;-74
2023/05/07 10:25:30;;;;;;;8.32;5.07;;;;;;;22.46;60.48;101546.88;5126626;27;20059;-74
2023/05/07 10:28:11;;;;;;;7.57;4.35;;;;;;;22.62;60.02;101549.34;5144031;27;20184;-73
2023/05/07 10:31:13;;;;;;;8.50;5.20;;;;;;;22.82;59.38;101548.88;5142861;27;20044;-74
2023/05/07 10:33:48;;;;;;;6.97;4.38;;;;;;;22.80;59.24;101549.00;5143131;27;20048;-74
2023/05/07 10:36:19;;;;;;;8.25;4.40;;;;;;;22.89;58.00;101542.97;5126543;27;20036;-74
2023/05/07 10:38:47;;;;;;;7.32;4.20;;;;;;;22.85;57.45;101544.16;5110048;27;20050;-75
2023/05/07 10:41:18;;;;;;;5.93;4.40;;;;;;;22.94;57.11;101554.22;5143272;27;20122;-75
2023/05/07 10:43:46;;;;;;;4.55;3.42;;;;;;;22.98;56.44;101551.34;5126703;27;20067;-74
2023/05/07 10:46:22;;;;;;;5.85;3.92;;;;;;;23.02;58.38;101556.38;5136835;27;20044;-74
2023/05/07 10:49:08;;;;;;;7.13;4.38;;;;;;;23.27;59.39;101551.94;5153369;27;20034;-74
2023/05/07 10:52:23;;;;;;;6.05;4.13;;;;;;;23.66;59.39;101554.47;5126799;27;20084;-74
2023/05/07 10:55:21;;;;;;;5.28;4.28;;;;;;;23.91;57.40;101563.41;5110765;27;20051;-74
2023/05/07 10:58:21;;;;;;;7.32;4.07;;;;;;;24.01;57.55;101556.38;5156681;27;20036;-74
2023/05/07 11:02:03;;;;;;;6.65;3.97;;;;;;;24.15;56.73;101555.31;5118901;27;20043;-74
2023/05/07 11:04:44;;;;;;;5.00;3.40;;;;;;;24.25;55.95;101553.63;5142086;27;20144;-74
2023/05/07 11:07:29;;;;;;;7.00;3.72;;;;;;;24.33;53.23;101548.50;5127963;27;20569;-75
2023/05/07 11:10:04;;;;;;;6.57;3.65;;;;;;;24.07;52.55;101550.50;5141835;27;20115;-74
2023/05/07 11:12:55;;;;;;;4.97;3.47;;;;;;;23.91;53.93;101549.94;5114024;27;20060;-74
2023/05/07 11:15:39;;;;;;;4.28;2.95;;;;;;;23.92;54.29;101543.59;5127333;27;20558;-74
2023/05/07 11:18:17;;;;;;;6.05;3.45;;;;;;;23.98;54.50;101543.16;5126634;27;20058;-75
2023/05/07 11:20:56;;;;;;;6.28;3.15;;;;;;;23.98;54.41;101546.72;5125908;27;20036;-74
2023/05/07 11:23:33;;;;;;;4.60;3.10;;;;;;;24.00;55.08;101533.13;5123492;27;20094;-74
2023/05/07 11:26:11;;;;;;;7.22;3.33;;;;;;;24.05;54.67;101544.41;5129006;27;20040;-75